sensor_id;sensor_type;location;lat;lon;timestamp;P1;durP1;ratioP1;P2;durP2;ratioP2
36931;SDS011;22847;42.654;23.370;2022-07-10T00:00:08;12.55;;;11.25;;
36931;SDS011;22847;42.654;23.370;2022-07-10T00:02:35;13.15;;;11.20;;
36931;SDS011;22847;42.654;23.370;2022-07-10T00:05:01;14.43;;;11.73;;
36931;SDS011;22847;42.654;23.370;2022-07-10T00:07:27;15.32;;;11.60;;
36931;SDS011;22847;42.654;23.370;2022-07-10T00:09:53;20.30;;;10.82;;
36931;SDS011;22847;42.654;23.370;2022-07-10T00:12:18;14.20;;;11.35;;
36931;SDS011;22847;42.654;23.370;2022-07-10T00:14:44;16.77;;;11.07;;
36931;SDS011;22847;42.654;23.370;2022-07-10T00:17:09;15.70;;;11.40;;
36931;SDS011;22847;42.654;23.370;2022-07-10T00:19:34;15.18;;;11.88;;
36931;SDS011;22847;42.654;23.370;2022-07-10T00:22:00;14.15;;;11.60;;
36931;SDS011;22847;42.654;23.370;2022-07-10T00:24:25;14.75;;;11.90;;
36931;SDS011;22847;42.654;23.370;2022-07-10T00:26:51;17.13;;;11.52;;
36931;SDS011;22847;42.654;23.370;2022-07-10T00:29:16;19.55;;;11.48;;
36931;SDS011;22847;42.654;23.370;2022-07-10T00:31:41;15.50;;;12.13;;
36931;SDS011;22847;42.654;23.370;2022-07-10T00:34:07;15.73;;;12.15;;
36931;SDS011;22847;42.654;23.370;2022-07-10T00:36:32;14.40;;;11.88;;
36931;SDS011;22847;42.654;23.370;2022-07-10T00:38:58;16.45;;;12.10;;
36931;SDS011;22847;42.654;23.370;2022-07-10T00:41:23;16.23;;;11.43;;
36931;SDS011;22847;42.654;23.370;2022-07-10T00:43:55;13.05;;;11.35;;
36931;SDS011;22847;42.654;23.370;2022-07-10T00:46:23;17.88;;;11.95;;
36931;SDS011;22847;42.654;23.370;2022-07-10T00:48:50;16.10;;;12.13;;
36931;SDS011;22847;42.654;23.370;2022-07-10T00:51:16;14.20;;;11.80;;
36931;SDS011;22847;42.654;23.370;2022-07-10T00:53:46;16.25;;;12.48;;
36931;SDS011;22847;42.654;23.370;2022-07-10T00:56:14;16.38;;;11.50;;
36931;SDS011;22847;42.654;23.370;2022-07-10T00:58:42;13.20;;;11.80;;
36931;SDS011;22847;42.654;23.370;2022-07-10T01:01:08;16.63;;;11.60;;
36931;SDS011;22847;42.654;23.370;2022-07-10T01:03:34;14.38;;;11.68;;
36931;SDS011;22847;42.654;23.370;2022-07-10T01:05:59;14.32;;;11.30;;
36931;SDS011;22847;42.654;23.370;2022-07-10T01:08:25;16.45;;;12.07;;
36931;SDS011;22847;42.654;23.370;2022-07-10T01:10:52;14.05;;;12.07;;
36931;SDS011;22847;42.654;23.370;2022-07-10T01:13:17;15.93;;;11.70;;
36931;SDS011;22847;42.654;23.370;2022-07-10T01:15:43;14.93;;;11.70;;
36931;SDS011;22847;42.654;23.370;2022-07-10T01:18:10;22.63;;;11.65;;
36931;SDS011;22847;42.654;23.370;2022-07-10T01:20:35;13.45;;;10.73;;
36931;SDS011;22847;42.654;23.370;2022-07-10T01:23:01;13.13;;;11.07;;
36931;SDS011;22847;42.654;23.370;2022-07-10T01:25:27;12.75;;;11.10;;
36931;SDS011;22847;42.654;23.370;2022-07-10T01:27:53;16.95;;;11.73;;
36931;SDS011;22847;42.654;23.370;2022-07-10T01:30:19;18.50;;;11.82;;
36931;SDS011;22847;42.654;23.370;2022-07-10T01:32:46;16.17;;;10.85;;
36931;SDS011;22847;42.654;23.370;2022-07-10T01:35:12;14.20;;;11.32;;
36931;SDS011;22847;42.654;23.370;2022-07-10T01:37:38;17.25;;;11.43;;
36931;SDS011;22847;42.654;23.370;2022-07-10T01:40:05;13.40;;;11.05;;
36931;SDS011;22847;42.654;23.370;2022-07-10T01:42:32;14.63;;;11.10;;
36931;SDS011;22847;42.654;23.370;2022-07-10T01:44:58;13.43;;;11.32;;
36931;SDS011;22847;42.654;23.370;2022-07-10T01:47:23;15.95;;;11.40;;
36931;SDS011;22847;42.654;23.370;2022-07-10T01:49:52;13.93;;;11.52;;
36931;SDS011;22847;42.654;23.370;2022-07-10T01:52:19;14.18;;;11.60;;
36931;SDS011;22847;42.654;23.370;2022-07-10T01:54:46;12.65;;;10.63;;
36931;SDS011;22847;42.654;23.370;2022-07-10T01:57:12;14.40;;;11.55;;
36931;SDS011;22847;42.654;23.370;2022-07-10T01:59:38;12.68;;;10.77;;
36931;SDS011;22847;42.654;23.370;2022-07-10T02:02:04;12.18;;;10.88;;
36931;SDS011;22847;42.654;23.370;2022-07-10T02:04:30;17.73;;;11.35;;
36931;SDS011;22847;42.654;23.370;2022-07-10T02:07:12;14.10;;;10.82;;
36931;SDS011;22847;42.654;23.370;2022-07-10T02:09:39;12.60;;;10.43;;
36931;SDS011;22847;42.654;23.370;2022-07-10T02:12:05;14.93;;;11.13;;
36931;SDS011;22847;42.654;23.370;2022-07-10T02:14:32;14.32;;;12.02;;
36931;SDS011;22847;42.654;23.370;2022-07-10T02:16:57;13.18;;;10.73;;
36931;SDS011;22847;42.654;23.370;2022-07-10T02:19:23;12.32;;;10.43;;
36931;SDS011;22847;42.654;23.370;2022-07-10T02:21:48;12.45;;;10.77;;
36931;SDS011;22847;42.654;23.370;2022-07-10T02:24:14;15.90;;;11.05;;
36931;SDS011;22847;42.654;23.370;2022-07-10T02:26:40;15.70;;;10.55;;
36931;SDS011;22847;42.654;23.370;2022-07-10T02:29:05;11.93;;;10.13;;
36931;SDS011;22847;42.654;23.370;2022-07-10T02:31:30;21.83;;;11.57;;
36931;SDS011;22847;42.654;23.370;2022-07-10T02:33:59;16.35;;;10.63;;
36931;SDS011;22847;42.654;23.370;2022-07-10T02:36:27;12.43;;;10.18;;
36931;SDS011;22847;42.654;23.370;2022-07-10T02:38:53;14.27;;;10.60;;
36931;SDS011;22847;42.654;23.370;2022-07-10T02:41:18;13.20;;;10.90;;
36931;SDS011;22847;42.654;23.370;2022-07-10T02:43:44;12.75;;;11.02;;
36931;SDS011;22847;42.654;23.370;2022-07-10T02:46:10;15.07;;;10.57;;
36931;SDS011;22847;42.654;23.370;2022-07-10T02:48:35;16.52;;;12.10;;
36931;SDS011;22847;42.654;23.370;2022-07-10T02:51:01;12.23;;;10.77;;
36931;SDS011;22847;42.654;23.370;2022-07-10T02:53:26;17.23;;;11.07;;
36931;SDS011;22847;42.654;23.370;2022-07-10T02:55:52;15.35;;;12.10;;
36931;SDS011;22847;42.654;23.370;2022-07-10T02:58:17;15.73;;;11.00;;
36931;SDS011;22847;42.654;23.370;2022-07-10T03:00:44;14.10;;;11.35;;
36931;SDS011;22847;42.654;23.370;2022-07-10T03:03:10;13.02;;;9.48;;
36931;SDS011;22847;42.654;23.370;2022-07-10T03:05:36;13.00;;;11.18;;
36931;SDS011;22847;42.654;23.370;2022-07-10T03:08:01;15.45;;;10.90;;
36931;SDS011;22847;42.654;23.370;2022-07-10T03:10:27;11.57;;;10.38;;
36931;SDS011;22847;42.654;23.370;2022-07-10T03:12:52;14.77;;;10.48;;
36931;SDS011;22847;42.654;23.370;2022-07-10T03:15:18;13.23;;;9.85;;
36931;SDS011;22847;42.654;23.370;2022-07-10T03:17:43;16.98;;;10.15;;
36931;SDS011;22847;42.654;23.370;2022-07-10T03:20:09;13.68;;;9.98;;
36931;SDS011;22847;42.654;23.370;2022-07-10T03:22:36;16.73;;;11.18;;
36931;SDS011;22847;42.654;23.370;2022-07-10T03:25:02;15.55;;;10.02;;
36931;SDS011;22847;42.654;23.370;2022-07-10T03:27:28;11.45;;;9.98;;
36931;SDS011;22847;42.654;23.370;2022-07-10T03:29:54;11.55;;;9.48;;
36931;SDS011;22847;42.654;23.370;2022-07-10T03:32:19;14.90;;;9.85;;
36931;SDS011;22847;42.654;23.370;2022-07-10T03:34:44;11.75;;;9.25;;
36931;SDS011;22847;42.654;23.370;2022-07-10T03:37:10;13.60;;;10.52;;
36931;SDS011;22847;42.654;23.370;2022-07-10T03:39:35;14.75;;;9.95;;
36931;SDS011;22847;42.654;23.370;2022-07-10T03:42:01;12.52;;;9.80;;
36931;SDS011;22847;42.654;23.370;2022-07-10T03:44:26;15.73;;;11.07;;
36931;SDS011;22847;42.654;23.370;2022-07-10T03:46:52;20.65;;;10.25;;
36931;SDS011;22847;42.654;23.370;2022-07-10T03:49:17;11.10;;;9.82;;
36931;SDS011;22847;42.654;23.370;2022-07-10T03:51:43;12.30;;;10.88;;
36931;SDS011;22847;42.654;23.370;2022-07-10T03:54:08;12.68;;;10.15;;
36931;SDS011;22847;42.654;23.370;2022-07-10T03:56:34;15.75;;;10.50;;
36931;SDS011;22847;42.654;23.370;2022-07-10T03:59:18;12.63;;;10.45;;
36931;SDS011;22847;42.654;23.370;2022-07-10T04:01:44;15.05;;;10.27;;
36931;SDS011;22847;42.654;23.370;2022-07-10T04:04:09;11.32;;;10.13;;
36931;SDS011;22847;42.654;23.370;2022-07-10T04:06:35;13.27;;;9.77;;
36931;SDS011;22847;42.654;23.370;2022-07-10T04:09:03;11.05;;;9.88;;
36931;SDS011;22847;42.654;23.370;2022-07-10T04:11:29;11.75;;;10.00;;
36931;SDS011;22847;42.654;23.370;2022-07-10T04:13:55;10.73;;;8.90;;
36931;SDS011;22847;42.654;23.370;2022-07-10T04:16:21;13.38;;;9.57;;
36931;SDS011;22847;42.654;23.370;2022-07-10T04:18:47;9.82;;;8.82;;
36931;SDS011;22847;42.654;23.370;2022-07-10T04:21:13;12.80;;;9.55;;
36931;SDS011;22847;42.654;23.370;2022-07-10T04:23:39;12.15;;;9.07;;
36931;SDS011;22847;42.654;23.370;2022-07-10T04:26:04;17.33;;;8.50;;
36931;SDS011;22847;42.654;23.370;2022-07-10T04:28:30;10.27;;;9.13;;
36931;SDS011;22847;42.654;23.370;2022-07-10T04:30:55;13.63;;;7.75;;
36931;SDS011;22847;42.654;23.370;2022-07-10T04:33:22;12.80;;;8.27;;
36931;SDS011;22847;42.654;23.370;2022-07-10T04:35:48;12.90;;;8.70;;
36931;SDS011;22847;42.654;23.370;2022-07-10T04:38:14;12.38;;;7.78;;
36931;SDS011;22847;42.654;23.370;2022-07-10T04:40:39;10.73;;;7.65;;
36931;SDS011;22847;42.654;23.370;2022-07-10T04:43:04;11.45;;;7.43;;
36931;SDS011;22847;42.654;23.370;2022-07-10T04:45:30;9.88;;;7.30;;
36931;SDS011;22847;42.654;23.370;2022-07-10T04:47:55;9.70;;;7.32;;
36931;SDS011;22847;42.654;23.370;2022-07-10T04:50:21;8.20;;;7.38;;
36931;SDS011;22847;42.654;23.370;2022-07-10T04:52:46;8.50;;;7.25;;
36931;SDS011;22847;42.654;23.370;2022-07-10T04:55:12;9.70;;;7.78;;
36931;SDS011;22847;42.654;23.370;2022-07-10T04:57:37;13.27;;;7.47;;
36931;SDS011;22847;42.654;23.370;2022-07-10T05:00:04;9.43;;;7.15;;
36931;SDS011;22847;42.654;23.370;2022-07-10T05:02:29;11.65;;;7.32;;
36931;SDS011;22847;42.654;23.370;2022-07-10T05:04:55;9.25;;;6.45;;
36931;SDS011;22847;42.654;23.370;2022-07-10T05:07:20;10.77;;;7.15;;
36931;SDS011;22847;42.654;23.370;2022-07-10T05:09:46;10.77;;;7.05;;
36931;SDS011;22847;42.654;23.370;2022-07-10T05:12:11;11.95;;;6.40;;
36931;SDS011;22847;42.654;23.370;2022-07-10T05:14:36;11.68;;;7.05;;
36931;SDS011;22847;42.654;23.370;2022-07-10T05:17:02;7.07;;;6.38;;
36931;SDS011;22847;42.654;23.370;2022-07-10T05:19:28;11.98;;;6.85;;
36931;SDS011;22847;42.654;23.370;2022-07-10T05:21:54;8.48;;;7.38;;
36931;SDS011;22847;42.654;23.370;2022-07-10T05:24:20;14.90;;;9.45;;
36931;SDS011;22847;42.654;23.370;2022-07-10T05:26:45;8.27;;;7.28;;
36931;SDS011;22847;42.654;23.370;2022-07-10T05:29:11;6.85;;;6.25;;
36931;SDS011;22847;42.654;23.370;2022-07-10T05:31:36;7.65;;;6.57;;
36931;SDS011;22847;42.654;23.370;2022-07-10T05:34:02;10.15;;;6.53;;
36931;SDS011;22847;42.654;23.370;2022-07-10T05:36:27;9.85;;;6.95;;
36931;SDS011;22847;42.654;23.370;2022-07-10T05:38:53;13.43;;;6.38;;
36931;SDS011;22847;42.654;23.370;2022-07-10T05:41:18;8.93;;;6.43;;
36931;SDS011;22847;42.654;23.370;2022-07-10T05:43:44;13.50;;;6.60;;
36931;SDS011;22847;42.654;23.370;2022-07-10T05:46:09;7.85;;;6.32;;
36931;SDS011;22847;42.654;23.370;2022-07-10T05:48:34;7.40;;;6.07;;
36931;SDS011;22847;42.654;23.370;2022-07-10T05:51:00;10.95;;;6.32;;
36931;SDS011;22847;42.654;23.370;2022-07-10T05:53:26;12.68;;;6.57;;
36931;SDS011;22847;42.654;23.370;2022-07-10T05:55:51;7.07;;;6.15;;
36931;SDS011;22847;42.654;23.370;2022-07-10T05:58:17;9.82;;;6.00;;
36931;SDS011;22847;42.654;23.370;2022-07-10T06:00:42;11.15;;;6.45;;
36931;SDS011;22847;42.654;23.370;2022-07-10T06:03:09;8.45;;;6.00;;
36931;SDS011;22847;42.654;23.370;2022-07-10T06:05:35;9.73;;;5.90;;
36931;SDS011;22847;42.654;23.370;2022-07-10T06:08:01;10.60;;;6.38;;
36931;SDS011;22847;42.654;23.370;2022-07-10T06:10:27;12.32;;;5.45;;
36931;SDS011;22847;42.654;23.370;2022-07-10T06:12:53;11.90;;;4.68;;
36931;SDS011;22847;42.654;23.370;2022-07-10T06:15:18;6.05;;;4.25;;
36931;SDS011;22847;42.654;23.370;2022-07-10T06:17:44;6.75;;;4.20;;
36931;SDS011;22847;42.654;23.370;2022-07-10T06:20:09;8.13;;;4.28;;
36931;SDS011;22847;42.654;23.370;2022-07-10T06:22:35;5.03;;;4.40;;
36931;SDS011;22847;42.654;23.370;2022-07-10T06:25:02;13.50;;;4.57;;
36931;SDS011;22847;42.654;23.370;2022-07-10T06:27:29;5.95;;;4.30;;
36931;SDS011;22847;42.654;23.370;2022-07-10T06:29:55;5.15;;;4.32;;
36931;SDS011;22847;42.654;23.370;2022-07-10T06:32:21;6.50;;;4.28;;
36931;SDS011;22847;42.654;23.370;2022-07-10T06:34:47;7.25;;;4.90;;
36931;SDS011;22847;42.654;23.370;2022-07-10T06:37:12;7.75;;;4.38;;
36931;SDS011;22847;42.654;23.370;2022-07-10T06:39:38;8.52;;;4.60;;
36931;SDS011;22847;42.654;23.370;2022-07-10T06:42:04;5.18;;;4.38;;
36931;SDS011;22847;42.654;23.370;2022-07-10T06:44:31;6.72;;;5.13;;
36931;SDS011;22847;42.654;23.370;2022-07-10T06:46:57;6.85;;;4.50;;
36931;SDS011;22847;42.654;23.370;2022-07-10T06:49:42;5.75;;;3.97;;
36931;SDS011;22847;42.654;23.370;2022-07-10T06:52:07;4.65;;;4.07;;
36931;SDS011;22847;42.654;23.370;2022-07-10T06:54:33;8.70;;;4.78;;
36931;SDS011;22847;42.654;23.370;2022-07-10T06:56:59;6.00;;;3.80;;
36931;SDS011;22847;42.654;23.370;2022-07-10T06:59:25;4.88;;;4.30;;
36931;SDS011;22847;42.654;23.370;2022-07-10T07:01:50;5.65;;;3.85;;
36931;SDS011;22847;42.654;23.370;2022-07-10T07:04:16;4.72;;;4.22;;
36931;SDS011;22847;42.654;23.370;2022-07-10T07:06:42;9.70;;;4.97;;
36931;SDS011;22847;42.654;23.370;2022-07-10T07:09:07;10.55;;;3.78;;
36931;SDS011;22847;42.654;23.370;2022-07-10T07:11:32;10.73;;;5.30;;
36931;SDS011;22847;42.654;23.370;2022-07-10T07:13:58;7.40;;;3.92;;
36931;SDS011;22847;42.654;23.370;2022-07-10T07:16:23;4.95;;;4.00;;
36931;SDS011;22847;42.654;23.370;2022-07-10T07:19:03;8.63;;;5.22;;
36931;SDS011;22847;42.654;23.370;2022-07-10T07:21:30;6.72;;;3.88;;
36931;SDS011;22847;42.654;23.370;2022-07-10T07:24:14;7.00;;;4.68;;
36931;SDS011;22847;42.654;23.370;2022-07-10T07:26:39;7.65;;;4.00;;
36931;SDS011;22847;42.654;23.370;2022-07-10T07:29:05;7.43;;;4.28;;
36931;SDS011;22847;42.654;23.370;2022-07-10T07:31:30;9.63;;;3.95;;
36931;SDS011;22847;42.654;23.370;2022-07-10T07:33:56;6.00;;;3.65;;
36931;SDS011;22847;42.654;23.370;2022-07-10T07:36:22;3.90;;;3.50;;
36931;SDS011;22847;42.654;23.370;2022-07-10T07:38:48;5.22;;;3.47;;
36931;SDS011;22847;42.654;23.370;2022-07-10T07:41:13;11.10;;;3.85;;
36931;SDS011;22847;42.654;23.370;2022-07-10T07:43:41;5.63;;;3.92;;
36931;SDS011;22847;42.654;23.370;2022-07-10T07:46:06;7.63;;;4.30;;
36931;SDS011;22847;42.654;23.370;2022-07-10T07:48:32;6.10;;;3.63;;
36931;SDS011;22847;42.654;23.370;2022-07-10T07:50:57;8.13;;;4.32;;
36931;SDS011;22847;42.654;23.370;2022-07-10T07:53:23;4.55;;;3.85;;
36931;SDS011;22847;42.654;23.370;2022-07-10T07:55:48;5.35;;;3.33;;
36931;SDS011;22847;42.654;23.370;2022-07-10T07:58:14;8.20;;;3.70;;
36931;SDS011;22847;42.654;23.370;2022-07-10T08:00:39;9.48;;;3.70;;
36931;SDS011;22847;42.654;23.370;2022-07-10T08:03:05;9.63;;;4.28;;
36931;SDS011;22847;42.654;23.370;2022-07-10T08:05:30;4.95;;;3.92;;
36931;SDS011;22847;42.654;23.370;2022-07-10T08:07:57;6.13;;;3.55;;
36931;SDS011;22847;42.654;23.370;2022-07-10T08:10:24;9.68;;;3.78;;
36931;SDS011;22847;42.654;23.370;2022-07-10T08:12:51;11.68;;;4.30;;
36931;SDS011;22847;42.654;23.370;2022-07-10T08:15:18;7.38;;;3.95;;
36931;SDS011;22847;42.654;23.370;2022-07-10T08:17:48;5.28;;;3.80;;
36931;SDS011;22847;42.654;23.370;2022-07-10T08:20:14;8.82;;;3.78;;
36931;SDS011;22847;42.654;23.370;2022-07-10T08:22:40;9.57;;;3.88;;
36931;SDS011;22847;42.654;23.370;2022-07-10T08:25:06;7.18;;;3.72;;
36931;SDS011;22847;42.654;23.370;2022-07-10T08:27:33;5.28;;;3.20;;
36931;SDS011;22847;42.654;23.370;2022-07-10T08:29:59;4.68;;;3.17;;
36931;SDS011;22847;42.654;23.370;2022-07-10T08:32:25;8.65;;;3.28;;
36931;SDS011;22847;42.654;23.370;2022-07-10T08:34:52;10.45;;;3.30;;
36931;SDS011;22847;42.654;23.370;2022-07-10T08:37:17;10.00;;;3.40;;
36931;SDS011;22847;42.654;23.370;2022-07-10T08:39:44;7.53;;;3.10;;
36931;SDS011;22847;42.654;23.370;2022-07-10T08:42:10;5.35;;;3.85;;
36931;SDS011;22847;42.654;23.370;2022-07-10T08:44:36;4.78;;;3.30;;
36931;SDS011;22847;42.654;23.370;2022-07-10T08:47:02;3.78;;;3.20;;
36931;SDS011;22847;42.654;23.370;2022-07-10T08:49:30;7.93;;;3.20;;
36931;SDS011;22847;42.654;23.370;2022-07-10T08:54:22;10.15;;;2.90;;
36931;SDS011;22847;42.654;23.370;2022-07-10T08:56:49;9.35;;;3.30;;
36931;SDS011;22847;42.654;23.370;2022-07-10T08:59:15;5.88;;;3.08;;
36931;SDS011;22847;42.654;23.370;2022-07-10T09:01:43;6.72;;;3.10;;
36931;SDS011;22847;42.654;23.370;2022-07-10T09:04:15;4.22;;;3.10;;
36931;SDS011;22847;42.654;23.370;2022-07-10T09:06:47;9.10;;;3.55;;
36931;SDS011;22847;42.654;23.370;2022-07-10T09:09:13;7.90;;;2.97;;
36931;SDS011;22847;42.654;23.370;2022-07-10T09:11:39;5.43;;;3.10;;
36931;SDS011;22847;42.654;23.370;2022-07-10T09:14:07;3.95;;;3.53;;
36931;SDS011;22847;42.654;23.370;2022-07-10T09:16:43;3.80;;;2.97;;
36931;SDS011;22847;42.654;23.370;2022-07-10T09:24:24;5.05;;;3.30;;
36931;SDS011;22847;42.654;23.370;2022-07-10T09:29:22;5.35;;;3.40;;
36931;SDS011;22847;42.654;23.370;2022-07-10T09:31:51;6.18;;;3.55;;
36931;SDS011;22847;42.654;23.370;2022-07-10T09:34:45;4.82;;;3.17;;
36931;SDS011;22847;42.654;23.370;2022-07-10T09:39:57;5.03;;;3.15;;
36931;SDS011;22847;42.654;23.370;2022-07-10T09:42:40;4.40;;;3.33;;
36931;SDS011;22847;42.654;23.370;2022-07-10T09:50:21;5.43;;;3.20;;
36931;SDS011;22847;42.654;23.370;2022-07-10T09:52:52;6.20;;;3.65;;
36931;SDS011;22847;42.654;23.370;2022-07-10T09:55:24;8.13;;;2.75;;
36931;SDS011;22847;42.654;23.370;2022-07-10T09:57:58;4.40;;;3.00;;
36931;SDS011;22847;42.654;23.370;2022-07-10T10:00:26;9.45;;;3.15;;
36931;SDS011;22847;42.654;23.370;2022-07-10T10:02:59;6.95;;;3.35;;
36931;SDS011;22847;42.654;23.370;2022-07-10T10:05:28;4.72;;;3.20;;
36931;SDS011;22847;42.654;23.370;2022-07-10T10:08:25;6.30;;;3.05;;
36931;SDS011;22847;42.654;23.370;2022-07-10T10:11:21;6.68;;;2.97;;
36931;SDS011;22847;42.654;23.370;2022-07-10T10:13:50;6.20;;;2.90;;
36931;SDS011;22847;42.654;23.370;2022-07-10T10:16:17;4.00;;;2.95;;
36931;SDS011;22847;42.654;23.370;2022-07-10T10:18:44;10.07;;;4.00;;
36931;SDS011;22847;42.654;23.370;2022-07-10T10:21:29;4.43;;;2.50;;
36931;SDS011;22847;42.654;23.370;2022-07-10T10:23:55;5.47;;;3.08;;
36931;SDS011;22847;42.654;23.370;2022-07-10T10:26:21;3.22;;;2.90;;
36931;SDS011;22847;42.654;23.370;2022-07-10T10:28:49;5.25;;;2.72;;
36931;SDS011;22847;42.654;23.370;2022-07-10T10:31:18;6.28;;;2.92;;
36931;SDS011;22847;42.654;23.370;2022-07-10T10:33:46;6.93;;;3.42;;
36931;SDS011;22847;42.654;23.370;2022-07-10T10:36:13;8.43;;;2.90;;
36931;SDS011;22847;42.654;23.370;2022-07-10T10:41:24;11.48;;;8.27;;
36931;SDS011;22847;42.654;23.370;2022-07-10T10:49:16;3.47;;;2.53;;
36931;SDS011;22847;42.654;23.370;2022-07-10T10:54:28;14.77;;;2.92;;
36931;SDS011;22847;42.654;23.370;2022-07-10T10:57:15;3.92;;;2.78;;
36931;SDS011;22847;42.654;23.370;2022-07-10T11:04:51;9.23;;;2.50;;
36931;SDS011;22847;42.654;23.370;2022-07-10T11:10:29;4.63;;;2.67;;
36931;SDS011;22847;42.654;23.370;2022-07-10T11:15:52;4.80;;;2.90;;
36931;SDS011;22847;42.654;23.370;2022-07-10T11:18:18;6.60;;;2.65;;
36931;SDS011;22847;42.654;23.370;2022-07-10T11:20:47;3.75;;;2.83;;
36931;SDS011;22847;42.654;23.370;2022-07-10T11:23:17;7.45;;;2.97;;
36931;SDS011;22847;42.654;23.370;2022-07-10T11:25:54;5.55;;;2.72;;
36931;SDS011;22847;42.654;23.370;2022-07-10T11:28:41;4.85;;;2.70;;
36931;SDS011;22847;42.654;23.370;2022-07-10T11:31:17;3.47;;;2.88;;
36931;SDS011;22847;42.654;23.370;2022-07-10T11:33:45;5.25;;;2.75;;
36931;SDS011;22847;42.654;23.370;2022-07-10T11:36:13;4.72;;;2.40;;
36931;SDS011;22847;42.654;23.370;2022-07-10T11:38:42;5.57;;;2.20;;
36931;SDS011;22847;42.654;23.370;2022-07-10T11:41:14;5.32;;;2.20;;
36931;SDS011;22847;42.654;23.370;2022-07-10T11:46:20;4.13;;;2.58;;
36931;SDS011;22847;42.654;23.370;2022-07-10T11:48:46;4.03;;;2.60;;
36931;SDS011;22847;42.654;23.370;2022-07-10T11:51:16;5.30;;;2.60;;
36931;SDS011;22847;42.654;23.370;2022-07-10T11:53:51;3.05;;;2.50;;
36931;SDS011;22847;42.654;23.370;2022-07-10T11:56:28;5.28;;;2.67;;
36931;SDS011;22847;42.654;23.370;2022-07-10T11:59:00;3.33;;;2.58;;
36931;SDS011;22847;42.654;23.370;2022-07-10T12:01:28;5.90;;;2.80;;
36931;SDS011;22847;42.654;23.370;2022-07-10T12:06:24;4.30;;;2.70;;
36931;SDS011;22847;42.654;23.370;2022-07-10T12:08:50;5.57;;;2.70;;
36931;SDS011;22847;42.654;23.370;2022-07-10T12:11:16;5.30;;;2.60;;
36931;SDS011;22847;42.654;23.370;2022-07-10T12:13:44;3.90;;;2.60;;
36931;SDS011;22847;42.654;23.370;2022-07-10T12:16:10;2.55;;;2.05;;
36931;SDS011;22847;42.654;23.370;2022-07-10T12:18:36;3.50;;;2.38;;
36931;SDS011;22847;42.654;23.370;2022-07-10T12:21:02;6.70;;;2.53;;
36931;SDS011;22847;42.654;23.370;2022-07-10T12:23:27;4.78;;;2.65;;
36931;SDS011;22847;42.654;23.370;2022-07-10T12:25:54;4.95;;;2.25;;
36931;SDS011;22847;42.654;23.370;2022-07-10T12:28:21;3.95;;;2.13;;
36931;SDS011;22847;42.654;23.370;2022-07-10T12:30:48;8.32;;;2.47;;
36931;SDS011;22847;42.654;23.370;2022-07-10T12:33:20;6.55;;;2.10;;
36931;SDS011;22847;42.654;23.370;2022-07-10T12:35:57;6.63;;;2.70;;
36931;SDS011;22847;42.654;23.370;2022-07-10T12:38:30;6.68;;;2.78;;
36931;SDS011;22847;42.654;23.370;2022-07-10T12:41:11;7.75;;;2.97;;
36931;SDS011;22847;42.654;23.370;2022-07-10T12:43:39;4.35;;;2.55;;
36931;SDS011;22847;42.654;23.370;2022-07-10T12:48:41;3.75;;;2.10;;
36931;SDS011;22847;42.654;23.370;2022-07-10T12:54:07;5.45;;;2.38;;
36931;SDS011;22847;42.654;23.370;2022-07-10T12:58:59;8.35;;;3.25;;
36931;SDS011;22847;42.654;23.370;2022-07-10T13:01:26;12.40;;;3.58;;
36931;SDS011;22847;42.654;23.370;2022-07-10T13:03:57;5.07;;;3.45;;
36931;SDS011;22847;42.654;23.370;2022-07-10T13:06:31;6.43;;;2.45;;
36931;SDS011;22847;42.654;23.370;2022-07-10T13:08:58;4.70;;;2.60;;
36931;SDS011;22847;42.654;23.370;2022-07-10T13:11:23;2.40;;;1.70;;
36931;SDS011;22847;42.654;23.370;2022-07-10T13:13:50;4.43;;;2.33;;
36931;SDS011;22847;42.654;23.370;2022-07-10T13:16:16;8.25;;;2.38;;
36931;SDS011;22847;42.654;23.370;2022-07-10T13:18:42;4.82;;;2.88;;
36931;SDS011;22847;42.654;23.370;2022-07-10T13:21:09;10.50;;;2.70;;
36931;SDS011;22847;42.654;23.370;2022-07-10T13:23:36;5.75;;;2.70;;
36931;SDS011;22847;42.654;23.370;2022-07-10T13:26:02;4.65;;;2.15;;
36931;SDS011;22847;42.654;23.370;2022-07-10T13:28:29;3.05;;;2.53;;
36931;SDS011;22847;42.654;23.370;2022-07-10T13:30:55;4.85;;;2.17;;
36931;SDS011;22847;42.654;23.370;2022-07-10T13:33:21;8.85;;;6.22;;
36931;SDS011;22847;42.654;23.370;2022-07-10T13:35:48;6.45;;;4.05;;
36931;SDS011;22847;42.654;23.370;2022-07-10T13:38:14;12.95;;;7.13;;
36931;SDS011;22847;42.654;23.370;2022-07-10T13:40:42;7.68;;;3.50;;
36931;SDS011;22847;42.654;23.370;2022-07-10T13:43:09;8.60;;;6.35;;
36931;SDS011;22847;42.654;23.370;2022-07-10T13:45:35;6.88;;;4.45;;
36931;SDS011;22847;42.654;23.370;2022-07-10T13:48:19;7.90;;;3.17;;
36931;SDS011;22847;42.654;23.370;2022-07-10T13:50:44;7.38;;;4.28;;
36931;SDS011;22847;42.654;23.370;2022-07-10T13:53:14;3.80;;;1.70;;
36931;SDS011;22847;42.654;23.370;2022-07-10T13:55:40;8.93;;;2.10;;
36931;SDS011;22847;42.654;23.370;2022-07-10T13:58:06;8.30;;;3.10;;
36931;SDS011;22847;42.654;23.370;2022-07-10T14:00:32;7.70;;;4.45;;
36931;SDS011;22847;42.654;23.370;2022-07-10T14:02:57;31.70;;;5.60;;
36931;SDS011;22847;42.654;23.370;2022-07-10T14:05:25;19.92;;;6.05;;
36931;SDS011;22847;42.654;23.370;2022-07-10T14:07:50;3.95;;;2.78;;
36931;SDS011;22847;42.654;23.370;2022-07-10T14:10:16;8.40;;;4.28;;
36931;SDS011;22847;42.654;23.370;2022-07-10T14:12:41;7.05;;;2.90;;
36931;SDS011;22847;42.654;23.370;2022-07-10T14:15:07;3.13;;;1.52;;
36931;SDS011;22847;42.654;23.370;2022-07-10T14:17:33;11.02;;;4.47;;
36931;SDS011;22847;42.654;23.370;2022-07-10T14:19:59;2.88;;;1.92;;
36931;SDS011;22847;42.654;23.370;2022-07-10T14:22:25;2.67;;;1.25;;
36931;SDS011;22847;42.654;23.370;2022-07-10T14:24:50;5.15;;;2.55;;
36931;SDS011;22847;42.654;23.370;2022-07-10T14:27:17;2.50;;;2.10;;
36931;SDS011;22847;42.654;23.370;2022-07-10T14:29:42;2.38;;;1.65;;
36931;SDS011;22847;42.654;23.370;2022-07-10T14:32:08;4.80;;;2.45;;
36931;SDS011;22847;42.654;23.370;2022-07-10T14:34:34;5.07;;;1.98;;
36931;SDS011;22847;42.654;23.370;2022-07-10T14:37:00;2.80;;;1.70;;
36931;SDS011;22847;42.654;23.370;2022-07-10T14:39:26;5.72;;;2.28;;
36931;SDS011;22847;42.654;23.370;2022-07-10T14:41:51;8.57;;;2.88;;
36931;SDS011;22847;42.654;23.370;2022-07-10T14:44:17;7.13;;;1.50;;
36931;SDS011;22847;42.654;23.370;2022-07-10T14:46:42;3.05;;;1.40;;
36931;SDS011;22847;42.654;23.370;2022-07-10T14:49:08;5.63;;;1.75;;
36931;SDS011;22847;42.654;23.370;2022-07-10T14:51:34;11.27;;;2.35;;
36931;SDS011;22847;42.654;23.370;2022-07-10T14:54:01;5.38;;;1.50;;
36931;SDS011;22847;42.654;23.370;2022-07-10T14:56:26;13.48;;;2.80;;
36931;SDS011;22847;42.654;23.370;2022-07-10T14:58:52;18.13;;;3.53;;
36931;SDS011;22847;42.654;23.370;2022-07-10T15:01:17;2.83;;;1.35;;
36931;SDS011;22847;42.654;23.370;2022-07-10T15:03:43;2.60;;;1.58;;
36931;SDS011;22847;42.654;23.370;2022-07-10T15:06:08;5.22;;;2.67;;
36931;SDS011;22847;42.654;23.370;2022-07-10T15:08:34;19.67;;;3.45;;
36931;SDS011;22847;42.654;23.370;2022-07-10T15:11:00;9.40;;;4.15;;
36931;SDS011;22847;42.654;23.370;2022-07-10T15:13:26;3.42;;;2.10;;
36931;SDS011;22847;42.654;23.370;2022-07-10T15:15:51;6.63;;;2.47;;
36931;SDS011;22847;42.654;23.370;2022-07-10T15:18:18;7.97;;;3.60;;